createdAt,value
2023-01-02T00:00:22.277Z,10.40
2023-01-02T00:02:49.667Z,11.07
2023-01-02T00:05:16.857Z,10.60
2023-01-02T00:07:43.984Z,15.73
2023-01-02T00:10:11.314Z,9.90
2023-01-02T00:12:38.425Z,12.95
2023-01-02T00:15:05.790Z,8.50
2023-01-02T00:17:33.000Z,12.00
2023-01-02T00:20:00.461Z,14.18
2023-01-02T00:22:27.603Z,14.50
2023-01-02T00:24:54.735Z,14.82
2023-01-02T00:27:21.882Z,16.25
2023-01-02T00:29:48.952Z,17.88
2023-01-02T00:32:16.201Z,15.48
2023-01-02T00:34:43.294Z,17.40
2023-01-02T00:37:10.402Z,15.48
2023-01-02T00:39:37.556Z,17.27
2023-01-02T00:42:04.823Z,14.50
2023-01-02T00:44:31.915Z,15.93
2023-01-02T00:46:59.125Z,13.73
2023-01-02T00:49:26.285Z,12.05
2023-01-02T01:04:21.326Z,9.98
2023-01-02T01:06:48.446Z,11.13
2023-01-02T01:09:15.639Z,10.45
2023-01-02T01:11:42.848Z,10.45
2023-01-02T01:14:09.936Z,10.02
2023-01-02T01:16:37.065Z,11.00
2023-01-02T01:19:04.208Z,10.40
2023-01-02T01:21:31.399Z,9.82
2023-01-02T01:23:58.462Z,9.75
2023-01-02T01:26:25.707Z,13.38
2023-01-02T01:28:53.863Z,13.43
2023-01-02T01:31:21.477Z,11.00
2023-01-02T01:33:48.929Z,11.50
2023-01-02T01:36:25.236Z,12.27
2023-01-02T01:38:52.429Z,10.10
2023-01-02T01:41:20.812Z,12.40
2023-01-02T01:43:51.913Z,10.45
2023-01-02T01:46:42.129Z,11.60
2023-01-02T01:49:13.172Z,9.77
2023-01-02T01:51:44.197Z,10.95
2023-01-02T01:54:12.370Z,11.82
2023-01-02T01:56:45.475Z,10.05
2023-01-02T01:59:12.715Z,11.90
2023-01-02T02:01:41.888Z,11.73
2023-01-02T02:04:10.324Z,12.68
2023-01-02T02:06:37.666Z,13.23
2023-01-02T02:09:16.355Z,12.73
2023-01-02T02:11:43.596Z,12.93
2023-01-02T02:14:10.657Z,12.65
2023-01-02T02:16:37.805Z,12.18
2023-01-02T02:19:27.508Z,11.10
2023-01-02T02:22:13.373Z,11.85
2023-01-02T02:24:59.142Z,12.50
2023-01-02T02:27:38.559Z,13.07
2023-01-02T02:30:05.685Z,10.82
2023-01-02T02:32:48.148Z,12.95
2023-01-02T02:35:32.745Z,13.52
2023-01-02T02:38:06.820Z,11.52
2023-01-02T02:40:33.912Z,13.55
2023-01-02T02:43:19.546Z,11.65
2023-01-02T02:45:55.658Z,12.40
2023-01-02T02:48:32.194Z,13.13
2023-01-02T02:51:02.456Z,13.35
2023-01-02T02:53:52.669Z,13.05
2023-01-02T02:56:21.486Z,14.80
2023-01-02T02:58:48.653Z,12.02
2023-01-02T03:01:17.027Z,14.02
2023-01-02T03:03:44.504Z,14.00
2023-01-02T03:06:17.570Z,15.35
2023-01-02T03:08:56.848Z,14.10
2023-01-02T03:11:27.876Z,15.43
2023-01-02T03:14:02.021Z,12.80
2023-01-02T03:16:42.456Z,15.95
2023-01-02T03:19:09.552Z,14.47
2023-01-02T03:21:46.763Z,16.27
2023-01-02T03:24:15.730Z,14.60
2023-01-02T03:26:47.245Z,17.65
2023-01-02T03:29:17.528Z,13.70
2023-01-02T03:31:46.894Z,14.68
2023-01-02T03:34:15.814Z,13.88
2023-01-02T03:36:44.947Z,13.23
2023-01-02T03:39:13.792Z,16.88
2023-01-02T03:41:56.098Z,17.02
2023-01-02T03:44:24.799Z,13.82
2023-01-02T03:46:54.433Z,13.55
2023-01-02T03:49:33.104Z,12.40
2023-01-02T03:52:00.302Z,14.27
2023-01-02T03:54:28.748Z,13.80
2023-01-02T03:57:02.107Z,13.48
2023-01-02T03:59:47.985Z,14.95
2023-01-02T04:02:29.683Z,15.90
2023-01-02T04:05:20.136Z,14.43
2023-01-02T04:08:00.950Z,14.48
2023-01-02T04:10:29.145Z,14.10
2023-01-02T04:12:58.523Z,14.18
2023-01-02T04:15:28.021Z,15.73
2023-01-02T04:18:01.459Z,15.48
2023-01-02T04:20:33.195Z,14.77
2023-01-02T04:23:05.520Z,15.70
2023-01-02T04:25:36.295Z,15.38
2023-01-02T04:28:07.579Z,15.07
2023-01-02T04:33:06.394Z,14.65
2023-01-02T04:35:35.295Z,16.00
2023-01-02T04:38:09.501Z,18.63
2023-01-02T04:40:38.025Z,17.85
2023-01-02T04:43:09.360Z,17.58
2023-01-02T04:48:03.564Z,16.13
2023-01-02T04:50:30.626Z,18.48
2023-01-02T04:52:57.744Z,17.92
2023-01-02T04:55:24.913Z,15.95
2023-01-02T04:57:51.978Z,18.75
2023-01-02T05:00:19.175Z,16.85
2023-01-02T05:02:46.381Z,18.15
2023-01-02T05:05:13.580Z,15.40
2023-01-02T05:07:40.780Z,16.88
2023-01-02T05:10:08.401Z,16.55
2023-01-02T05:12:36.049Z,15.25
2023-01-02T05:15:03.878Z,16.48
2023-01-02T05:17:34.668Z,17.05
2023-01-02T05:20:01.999Z,16.55
2023-01-02T05:22:47.908Z,15.50
2023-01-02T05:25:15.063Z,16.30
2023-01-02T05:27:42.138Z,18.15
2023-01-02T05:30:09.990Z,17.27
2023-01-02T05:32:37.418Z,18.50
2023-01-02T05:35:04.610Z,19.95
2023-01-02T05:37:31.792Z,16.70
2023-01-02T05:39:58.894Z,16.25
2023-01-02T05:42:25.981Z,22.60
2023-01-02T05:44:53.192Z,19.30
2023-01-02T05:47:20.299Z,17.88
2023-01-02T05:49:47.349Z,19.27
2023-01-02T05:52:14.534Z,18.45
2023-01-02T05:54:41.656Z,15.98
2023-01-02T05:57:08.829Z,15.43
2023-01-02T05:59:36.546Z,17.88
2023-01-02T06:02:03.906Z,18.65
2023-01-02T06:04:31.353Z,17.13
2023-01-02T06:06:58.512Z,16.70
2023-01-02T06:09:25.598Z,18.35
2023-01-02T06:11:52.758Z,22.83
2023-01-02T06:14:20.194Z,19.77
2023-01-02T06:16:47.401Z,18.48
2023-01-02T06:19:14.512Z,20.48
2023-01-02T06:21:41.662Z,24.88
2023-01-02T06:24:08.741Z,26.55
2023-01-02T06:26:35.826Z,25.55
2023-01-02T06:29:03.321Z,26.45
2023-01-02T06:31:30.549Z,28.98
2023-01-02T06:33:58.769Z,26.20
2023-01-02T06:36:26.417Z,24.05
2023-01-02T06:38:53.543Z,22.50
2023-01-02T06:41:20.796Z,26.35
2023-01-02T06:43:48.752Z,22.50
2023-01-02T06:46:16.835Z,22.63
2023-01-02T06:48:44.007Z,19.67
2023-01-02T06:51:15.657Z,19.52
2023-01-02T06:53:43.523Z,18.98
2023-01-02T06:56:10.984Z,19.73
2023-01-02T06:58:38.868Z,21.35
2023-01-02T07:01:07.748Z,19.35
2023-01-02T07:03:35.019Z,20.00
2023-01-02T07:06:09.690Z,22.95
2023-01-02T07:08:37.013Z,21.95
2023-01-02T07:11:20.845Z,22.08
2023-01-02T07:13:48.469Z,18.92
2023-01-02T07:16:16.530Z,19.63
2023-01-02T07:18:43.982Z,23.17
2023-01-02T07:21:12.000Z,20.30
2023-01-02T07:23:39.569Z,23.70
2023-01-02T07:26:07.463Z,22.08
2023-01-02T07:28:35.078Z,20.38
2023-01-02T07:31:03.440Z,23.90
2023-01-02T07:33:31.322Z,22.92
2023-01-02T07:36:02.691Z,25.67
2023-01-02T07:38:29.909Z,25.13
2023-01-02T07:40:57.068Z,25.88
2023-01-02T07:43:24.227Z,24.42
2023-01-02T07:45:51.400Z,26.85
2023-01-02T07:48:19.139Z,25.45
2023-01-02T07:50:46.444Z,23.70
2023-01-02T07:53:13.684Z,27.30
2023-01-02T07:55:40.866Z,27.50
2023-01-02T07:58:08.140Z,25.33
2023-01-02T08:00:35.223Z,25.00
2023-01-02T08:03:02.394Z,24.75
2023-01-02T08:05:29.463Z,24.30
2023-01-02T08:07:56.519Z,28.90
2023-01-02T08:10:23.702Z,21.35
2023-01-02T08:12:50.872Z,27.92
2023-01-02T08:15:17.969Z,21.85
2023-01-02T08:17:45.127Z,20.38
2023-01-02T08:20:12.326Z,24.83
2023-01-02T08:22:39.497Z,23.40
2023-01-02T08:25:07.039Z,23.45
2023-01-02T08:27:34.214Z,25.80
2023-01-02T08:30:01.493Z,21.00
2023-01-02T08:32:28.653Z,24.85
2023-01-02T08:34:55.748Z,25.67
2023-01-02T08:37:22.888Z,22.35
2023-01-02T08:39:50.070Z,23.33
2023-01-02T08:42:17.474Z,26.77
2023-01-02T08:44:44.643Z,26.63
2023-01-02T08:47:11.799Z,22.40
2023-01-02T08:49:39.100Z,22.95
2023-01-02T08:52:06.323Z,28.95
2023-01-02T08:54:33.541Z,22.88
2023-01-02T08:57:00.739Z,26.70
2023-01-02T08:59:27.927Z,22.75
2023-01-02T09:01:55.537Z,25.10
2023-01-02T09:04:22.896Z,24.98
2023-01-02T09:06:50.005Z,23.38
2023-01-02T09:09:18.142Z,24.48
2023-01-02T09:11:48.954Z,22.85
2023-01-02T09:14:16.606Z,19.15
2023-01-02T09:16:43.884Z,18.63
2023-01-02T09:19:11.004Z,24.20
2023-01-02T09:21:38.150Z,18.48
2023-01-02T09:24:05.639Z,23.50
2023-01-02T09:26:32.781Z,19.30
2023-01-02T09:28:59.919Z,18.77
2023-01-02T09:31:27.274Z,19.63
2023-01-02T09:33:55.245Z,19.23
2023-01-02T09:36:22.899Z,20.88
2023-01-02T09:38:53.952Z,17.25
2023-01-02T09:41:33.017Z,18.48
2023-01-02T09:44:02.260Z,19.65
2023-01-02T09:46:48.218Z,18.52
2023-01-02T09:49:18.473Z,16.40
2023-01-02T09:51:45.902Z,16.58
2023-01-02T09:54:18.826Z,19.63
2023-01-02T09:56:48.774Z,17.48
2023-01-02T09:59:26.668Z,17.77
2023-01-02T10:02:20.391Z,18.55
2023-01-02T10:04:56.458Z,17.15
2023-01-02T10:07:26.982Z,19.00
2023-01-02T10:09:56.989Z,17.77
2023-01-02T10:12:37.883Z,16.42
2023-01-02T10:15:07.419Z,19.40
2023-01-02T10:17:37.576Z,22.55
2023-01-02T10:20:08.018Z,18.10
2023-01-02T10:22:48.253Z,17.25
2023-01-02T10:25:22.351Z,20.17
2023-01-02T14:01:43.032Z,22.33
2023-01-02T14:04:13.470Z,23.83
2023-01-02T14:06:41.819Z,20.87
2023-01-02T14:09:10.745Z,22.63
2023-01-02T14:11:55.622Z,23.75
2023-01-02T14:14:27.005Z,20.75
2023-01-02T14:17:12.930Z,19.17
2023-01-02T14:19:40.161Z,21.70
2023-01-02T14:22:17.645Z,22.30
2023-01-02T14:24:52.317Z,22.48
2023-01-02T14:27:28.048Z,17.15
2023-01-02T14:30:00.953Z,19.83
2023-01-02T14:32:36.918Z,21.27
2023-01-02T14:35:06.450Z,26.70
2023-01-02T14:38:00.005Z,22.55
2023-01-02T14:40:29.939Z,24.90
2023-01-02T14:43:20.266Z,23.13
2023-01-02T14:45:49.698Z,22.00
2023-01-02T14:48:28.607Z,21.58
2023-01-02T14:51:01.933Z,24.95
2023-01-02T14:53:32.764Z,27.00
2023-01-02T14:56:03.059Z,22.75
2023-01-02T14:58:49.122Z,25.77
2023-01-02T15:01:42.970Z,24.80
2023-01-02T15:04:23.792Z,26.27
2023-01-02T15:07:06.116Z,25.60
2023-01-02T15:09:42.498Z,24.13
2023-01-02T15:12:41.312Z,28.48
2023-01-02T15:15:11.009Z,27.00
2023-01-02T15:17:38.157Z,25.48
2023-01-02T15:20:06.690Z,26.35
2023-01-02T15:22:37.756Z,25.25
2023-01-02T15:25:05.058Z,25.92
2023-01-02T15:27:33.208Z,24.30
2023-01-02T15:30:01.234Z,25.70
2023-01-02T15:32:28.342Z,24.95
2023-01-02T15:35:10.740Z,30.00
2023-01-02T15:37:42.412Z,23.75
2023-01-02T15:40:15.296Z,27.27
2023-01-02T15:43:01.426Z,26.88
2023-01-02T15:45:28.819Z,26.13
2023-01-02T15:47:56.406Z,25.67
2023-01-02T15:50:24.729Z,24.90
2023-01-02T15:53:09.165Z,25.63
2023-01-02T15:55:37.836Z,28.52
2023-01-02T15:58:16.940Z,30.00
2023-01-02T16:00:45.121Z,27.95
2023-01-02T16:03:14.340Z,29.85
2023-01-02T16:05:52.412Z,26.83
2023-01-02T16:08:21.392Z,27.05
2023-01-02T16:10:51.312Z,29.27
2023-01-02T16:13:41.674Z,27.42
2023-01-02T16:16:16.541Z,30.30
2023-01-02T16:18:45.991Z,36.03
2023-01-02T16:21:14.472Z,37.45
2023-01-02T16:23:44.291Z,33.08
2023-01-02T16:26:12.409Z,31.02
2023-01-02T16:28:40.800Z,32.70
2023-01-02T16:31:14.990Z,33.03
2023-01-02T16:33:42.469Z,29.73
2023-01-02T16:36:09.654Z,29.90
2023-01-02T16:38:56.078Z,28.73
2023-01-02T16:41:27.430Z,31.42
2023-01-02T16:43:54.515Z,30.50
2023-01-02T16:46:21.772Z,35.70
2023-01-02T16:48:48.907Z,31.17
2023-01-02T16:51:16.086Z,31.45
2023-01-02T16:53:43.934Z,31.75
2023-01-02T16:56:11.783Z,30.05
2023-01-02T16:58:39.017Z,29.88
2023-01-02T17:01:06.405Z,31.98
2023-01-02T17:03:33.579Z,30.27
2023-01-02T17:06:04.719Z,35.33
2023-01-02T17:08:32.242Z,34.72
2023-01-02T17:10:59.917Z,33.70
2023-01-02T17:13:27.619Z,32.10
2023-01-02T17:15:54.929Z,34.60
2023-01-02T17:18:22.453Z,35.13
2023-01-02T17:20:49.596Z,34.08
2023-01-02T17:23:19.403Z,37.13
2023-01-02T17:25:46.968Z,36.63
2023-01-02T17:28:14.388Z,42.92
2023-01-02T17:30:42.253Z,38.55
2023-01-02T17:33:09.329Z,41.22
2023-01-02T17:35:36.491Z,38.05
2023-01-02T17:38:03.862Z,37.65
2023-01-02T17:40:30.955Z,30.00
2023-01-02T17:42:58.015Z,34.08
2023-01-02T17:45:25.385Z,36.67
2023-01-02T17:48:06.138Z,43.78
2023-01-02T17:50:37.497Z,44.97
2023-01-02T17:53:04.591Z,47.03
2023-01-02T17:55:31.674Z,47.10
2023-01-02T17:58:00.835Z,43.67
2023-01-02T18:00:28.115Z,44.60
2023-01-02T18:02:55.353Z,46.60
2023-01-02T18:05:22.873Z,50.08
2023-01-02T18:07:50.010Z,54.13
2023-01-02T18:10:20.406Z,50.35
2023-01-02T18:12:49.247Z,51.78
2023-01-02T18:15:16.947Z,49.03
2023-01-02T18:17:46.634Z,50.47
2023-01-02T18:20:14.851Z,46.13
2023-01-02T18:22:48.303Z,43.63
2023-01-02T18:25:19.357Z,39.78
2023-01-02T18:27:47.037Z,44.78
2023-01-02T18:30:17.520Z,44.42
2023-01-02T18:32:45.176Z,44.22
2023-01-02T18:35:56.054Z,43.22
2023-01-02T18:38:31.944Z,39.10
2023-01-02T18:40:59.185Z,38.42
2023-01-02T18:43:28.233Z,39.85
2023-01-02T18:45:57.149Z,39.75
2023-01-02T18:48:24.382Z,36.88
2023-01-02T18:50:56.081Z,40.15
2023-01-02T18:53:26.120Z,35.58
2023-01-02T18:55:57.604Z,36.53
2023-01-02T18:58:24.741Z,36.50
2023-01-02T19:00:53.705Z,38.72
2023-01-02T19:03:27.920Z,37.45
2023-01-02T19:05:55.511Z,38.08
2023-01-02T19:08:36.995Z,36.17
2023-01-02T19:11:32.837Z,34.50
2023-01-02T19:13:59.911Z,34.60
2023-01-02T19:16:27.073Z,35.97
2023-01-02T19:18:56.439Z,38.45
2023-01-02T19:21:29.699Z,38.05
2023-01-02T19:24:00.689Z,34.15
2023-01-02T19:26:35.000Z,36.15
2023-01-02T19:29:12.521Z,30.85
2023-01-02T19:31:39.573Z,33.45
2023-01-02T19:34:17.859Z,35.80
2023-01-02T19:36:44.951Z,38.85
2023-01-02T19:39:32.365Z,37.38
2023-01-02T19:42:18.239Z,36.75
2023-01-02T19:44:45.919Z,39.55
2023-01-02T19:47:13.033Z,37.58
2023-01-02T19:49:40.391Z,41.00
2023-01-02T19:52:07.582Z,36.95
2023-01-02T19:54:34.830Z,40.28
2023-01-02T19:57:01.902Z,40.70
2023-01-02T19:59:29.116Z,39.67
2023-01-02T20:01:56.405Z,39.97
2023-01-02T20:04:23.669Z,42.17
2023-01-02T20:06:50.816Z,46.65
2023-01-02T20:09:19.812Z,45.08
2023-01-02T20:12:07.689Z,50.42
2023-01-02T20:14:34.984Z,62.63
2023-01-02T20:17:02.091Z,57.67
2023-01-02T20:19:29.294Z,58.28
2023-01-02T20:21:56.413Z,64.22
2023-01-02T20:24:23.493Z,64.20
2023-01-02T20:26:50.667Z,62.10
2023-01-02T20:29:17.877Z,60.13
2023-01-02T20:31:45.009Z,62.30
2023-01-02T20:34:12.292Z,63.50
2023-01-02T20:36:39.430Z,62.42
2023-01-02T20:39:06.627Z,66.70
2023-01-02T20:41:33.839Z,63.58
2023-01-02T20:44:01.221Z,66.85
2023-01-02T20:46:28.336Z,65.28
2023-01-02T20:48:55.544Z,67.72
2023-01-02T20:51:22.676Z,68.07
2023-01-02T20:53:49.824Z,65.43
2023-01-02T20:56:16.990Z,58.67
2023-01-02T20:58:44.083Z,55.08
2023-01-02T21:01:11.285Z,54.05
2023-01-02T21:03:38.480Z,53.45
2023-01-02T21:06:05.739Z,51.28
2023-01-02T21:08:32.893Z,49.53
2023-01-02T21:11:00.056Z,48.20
2023-01-02T21:13:27.129Z,50.50
2023-01-02T21:15:55.457Z,48.58
2023-01-02T21:18:23.859Z,49.30
2023-01-02T21:20:55.338Z,49.50
2023-01-02T21:23:23.251Z,56.08
2023-01-02T21:25:50.648Z,56.67
2023-01-02T21:28:18.167Z,54.67
2023-01-02T21:30:45.390Z,49.22
2023-01-02T21:33:13.309Z,52.53
2023-01-02T21:35:41.670Z,47.15
2023-01-02T21:38:09.851Z,50.72
2023-01-02T21:40:37.042Z,44.15
2023-01-02T21:43:04.233Z,46.08
2023-01-02T21:45:31.407Z,45.67
2023-01-02T21:47:58.820Z,40.17
2023-01-02T21:50:26.341Z,44.70
2023-01-02T21:52:54.055Z,52.90
2023-01-02T21:55:21.479Z,52.58
2023-01-02T22:00:36.645Z,57.47
2023-01-02T22:03:03.862Z,64.32
2023-01-02T22:05:31.051Z,64.07
2023-01-02T22:07:58.239Z,65.15
2023-01-02T22:10:25.329Z,71.88
2023-01-02T22:12:52.419Z,71.63
2023-01-02T22:15:19.608Z,78.63
2023-01-02T22:17:46.695Z,75.18
2023-01-02T22:20:13.895Z,79.05
2023-01-02T22:22:41.095Z,87.72
2023-01-02T22:25:08.865Z,80.57
2023-01-02T22:27:36.397Z,69.75
2023-01-02T22:30:23.396Z,79.90
2023-01-02T22:32:51.056Z,83.30
2023-01-02T22:35:18.450Z,81.78
2023-01-02T22:37:45.626Z,80.07
2023-01-02T22:40:13.122Z,93.05
2023-01-02T22:43:05.373Z,92.63
2023-01-02T22:45:36.218Z,94.13
2023-01-02T22:48:05.149Z,94.95
2023-01-02T22:50:37.857Z,100.30
2023-01-02T22:53:09.165Z,92.90
2023-01-02T22:58:03.358Z,91.15
2023-01-02T23:00:30.529Z,98.22
2023-01-02T23:02:57.627Z,99.15
2023-01-02T23:05:24.715Z,94.18
2023-01-02T23:07:51.995Z,82.50
2023-01-02T23:10:19.340Z,91.32
2023-01-02T23:12:46.499Z,99.53
2023-01-02T23:15:14.298Z,84.70
2023-01-02T23:17:59.868Z,70.97
2023-01-02T23:20:27.631Z,74.03
2023-01-02T23:22:54.819Z,67.22
2023-01-02T23:25:22.191Z,66.15
2023-01-02T23:27:49.457Z,60.60
2023-01-02T23:30:16.682Z,59.75
2023-01-02T23:32:43.867Z,67.35
2023-01-02T23:35:11.038Z,53.60
2023-01-02T23:37:38.174Z,63.50
2023-01-02T23:40:06.100Z,66.55
2023-01-02T23:42:33.269Z,74.78
2023-01-02T23:45:00.341Z,64.22
2023-01-02T23:47:27.429Z,67.90
2023-01-02T23:49:54.562Z,75.60
2023-01-02T23:52:21.660Z,75.30
2023-01-02T23:54:48.757Z,68.57
2023-01-02T23:57:16.068Z,72.82
2023-01-02T23:59:43.190Z,70.53
